sensor_id;sensor_type;location;lat;lon;timestamp;temperature;humidity
21403;DHT22;10862;51.886;17.078;2023-11-22T00:00:54;23.40;99.90
21403;DHT22;10862;51.886;17.078;2023-11-22T00:03:20;23.40;99.90
21403;DHT22;10862;51.886;17.078;2023-11-22T00:05:45;23.30;99.90
21403;DHT22;10862;51.886;17.078;2023-11-22T00:08:12;23.30;99.90
21403;DHT22;10862;51.886;17.078;2023-11-22T00:10:38;23.20;99.90
21403;DHT22;10862;51.886;17.078;2023-11-22T00:13:04;23.20;99.90
21403;DHT22;10862;51.886;17.078;2023-11-22T00:15:30;23.20;99.90
21403;DHT22;10862;51.886;17.078;2023-11-22T00:17:56;23.20;99.90
21403;DHT22;10862;51.886;17.078;2023-11-22T00:20:23;23.10;99.90
21403;DHT22;10862;51.886;17.078;2023-11-22T00:22:49;23.10;99.90
21403;DHT22;10862;51.886;17.078;2023-11-22T00:25:15;23.00;99.90
21403;DHT22;10862;51.886;17.078;2023-11-22T00:27:41;23.00;99.90
21403;DHT22;10862;51.886;17.078;2023-11-22T00:30:08;23.00;99.90
21403;DHT22;10862;51.886;17.078;2023-11-22T00:32:35;23.00;99.90
21403;DHT22;10862;51.886;17.078;2023-11-22T00:35:00;22.90;99.90
21403;DHT22;10862;51.886;17.078;2023-11-22T00:37:26;22.90;99.90
21403;DHT22;10862;51.886;17.078;2023-11-22T00:39:52;22.80;99.90
21403;DHT22;10862;51.886;17.078;2023-11-22T00:42:18;22.80;99.90
21403;DHT22;10862;51.886;17.078;2023-11-22T00:44:46;22.80;99.90
21403;DHT22;10862;51.886;17.078;2023-11-22T00:47:13;22.70;99.90
21403;DHT22;10862;51.886;17.078;2023-11-22T00:49:39;22.70;99.90
21403;DHT22;10862;51.886;17.078;2023-11-22T00:52:04;22.70;99.90
21403;DHT22;10862;51.886;17.078;2023-11-22T00:54:30;22.70;99.90
21403;DHT22;10862;51.886;17.078;2023-11-22T00:56:56;22.60;99.90
21403;DHT22;10862;51.886;17.078;2023-11-22T00:59:21;22.60;99.90
21403;DHT22;10862;51.886;17.078;2023-11-22T01:01:47;22.60;99.90
21403;DHT22;10862;51.886;17.078;2023-11-22T01:04:12;22.60;99.90
21403;DHT22;10862;51.886;17.078;2023-11-22T01:06:38;22.60;99.90
21403;DHT22;10862;51.886;17.078;2023-11-22T01:09:06;22.60;99.90
21403;DHT22;10862;51.886;17.078;2023-11-22T01:11:34;22.50;99.90
21403;DHT22;10862;51.886;17.078;2023-11-22T01:14:00;22.50;99.90
21403;DHT22;10862;51.886;17.078;2023-11-22T01:16:25;22.50;99.90
21403;DHT22;10862;51.886;17.078;2023-11-22T01:18:51;22.50;99.90
21403;DHT22;10862;51.886;17.078;2023-11-22T01:21:18;22.50;99.90
21403;DHT22;10862;51.886;17.078;2023-11-22T01:23:45;22.50;99.90
21403;DHT22;10862;51.886;17.078;2023-11-22T01:26:12;22.40;99.90
21403;DHT22;10862;51.886;17.078;2023-11-22T01:28:37;22.40;99.90
21403;DHT22;10862;51.886;17.078;2023-11-22T01:31:05;22.40;99.90
21403;DHT22;10862;51.886;17.078;2023-11-22T01:33:31;22.40;99.90
21403;DHT22;10862;51.886;17.078;2023-11-22T01:36:00;22.30;99.90
21403;DHT22;10862;51.886;17.078;2023-11-22T01:38:25;22.30;99.90
21403;DHT22;10862;51.886;17.078;2023-11-22T01:40:51;22.30;99.90
21403;DHT22;10862;51.886;17.078;2023-11-22T01:43:18;22.30;99.90
21403;DHT22;10862;51.886;17.078;2023-11-22T01:45:44;22.30;99.90
21403;DHT22;10862;51.886;17.078;2023-11-22T01:48:11;22.30;99.90
21403;DHT22;10862;51.886;17.078;2023-11-22T01:50:41;22.30;99.90
21403;DHT22;10862;51.886;17.078;2023-11-22T01:53:11;22.30;99.90
21403;DHT22;10862;51.886;17.078;2023-11-22T01:55:39;22.30;99.90
21403;DHT22;10862;51.886;17.078;2023-11-22T01:58:05;22.30;99.90
21403;DHT22;10862;51.886;17.078;2023-11-22T02:00:36;22.30;99.90
21403;DHT22;10862;51.886;17.078;2023-11-22T02:03:05;22.30;99.90
21403;DHT22;10862;51.886;17.078;2023-11-22T02:05:31;22.20;99.90
21403;DHT22;10862;51.886;17.078;2023-11-22T02:07:57;22.20;99.90
21403;DHT22;10862;51.886;17.078;2023-11-22T02:10:23;22.20;99.90
21403;DHT22;10862;51.886;17.078;2023-11-22T02:12:49;22.20;99.90
21403;DHT22;10862;51.886;17.078;2023-11-22T02:15:15;22.20;99.90
21403;DHT22;10862;51.886;17.078;2023-11-22T02:17:40;22.10;99.90
21403;DHT22;10862;51.886;17.078;2023-11-22T02:20:06;22.10;99.90
21403;DHT22;10862;51.886;17.078;2023-11-22T02:22:46;22.10;99.90
21403;DHT22;10862;51.886;17.078;2023-11-22T02:25:12;22.10;99.90
21403;DHT22;10862;51.886;17.078;2023-11-22T02:27:37;22.10;99.90
21403;DHT22;10862;51.886;17.078;2023-11-22T02:30:03;22.10;99.90
21403;DHT22;10862;51.886;17.078;2023-11-22T02:32:31;22.10;99.90
21403;DHT22;10862;51.886;17.078;2023-11-22T02:34:57;22.00;99.90
21403;DHT22;10862;51.886;17.078;2023-11-22T02:37:22;22.10;99.90
21403;DHT22;10862;51.886;17.078;2023-11-22T02:40:06;22.00;99.90
21403;DHT22;10862;51.886;17.078;2023-11-22T02:42:34;22.00;99.90
21403;DHT22;10862;51.886;17.078;2023-11-22T02:45:00;22.00;99.90
21403;DHT22;10862;51.886;17.078;2023-11-22T02:47:26;22.00;99.90
21403;DHT22;10862;51.886;17.078;2023-11-22T02:49:52;22.00;99.90
21403;DHT22;10862;51.886;17.078;2023-11-22T02:52:20;22.00;99.90
21403;DHT22;10862;51.886;17.078;2023-11-22T02:54:47;22.00;99.90
21403;DHT22;10862;51.886;17.078;2023-11-22T02:57:13;21.90;99.90
21403;DHT22;10862;51.886;17.078;2023-11-22T02:59:42;21.90;99.90
21403;DHT22;10862;51.886;17.078;2023-11-22T03:02:08;21.90;99.90
21403;DHT22;10862;51.886;17.078;2023-11-22T03:04:34;21.90;99.90
21403;DHT22;10862;51.886;17.078;2023-11-22T03:06:59;21.80;99.90
21403;DHT22;10862;51.886;17.078;2023-11-22T03:09:25;21.80;99.90
21403;DHT22;10862;51.886;17.078;2023-11-22T03:11:52;21.80;99.90
21403;DHT22;10862;51.886;17.078;2023-11-22T03:14:18;21.80;99.90
21403;DHT22;10862;51.886;17.078;2023-11-22T03:16:44;21.80;99.90
21403;DHT22;10862;51.886;17.078;2023-11-22T03:19:10;21.80;99.90
21403;DHT22;10862;51.886;17.078;2023-11-22T03:21:37;21.80;99.90
21403;DHT22;10862;51.886;17.078;2023-11-22T03:24:03;21.80;99.90
21403;DHT22;10862;51.886;17.078;2023-11-22T03:26:31;21.80;99.90
21403;DHT22;10862;51.886;17.078;2023-11-22T03:28:57;21.80;99.90
21403;DHT22;10862;51.886;17.078;2023-11-22T03:31:22;21.80;99.90
21403;DHT22;10862;51.886;17.078;2023-11-22T03:33:48;21.70;99.90
21403;DHT22;10862;51.886;17.078;2023-11-22T03:36:13;21.80;99.90
21403;DHT22;10862;51.886;17.078;2023-11-22T03:38:39;21.70;99.90
21403;DHT22;10862;51.886;17.078;2023-11-22T03:41:05;21.70;99.90
21403;DHT22;10862;51.886;17.078;2023-11-22T03:43:31;21.70;99.90
21403;DHT22;10862;51.886;17.078;2023-11-22T03:45:56;21.70;99.90
21403;DHT22;10862;51.886;17.078;2023-11-22T03:48:22;21.70;99.90
21403;DHT22;10862;51.886;17.078;2023-11-22T03:50:49;21.70;99.90
21403;DHT22;10862;51.886;17.078;2023-11-22T03:53:15;21.70;99.90
21403;DHT22;10862;51.886;17.078;2023-11-22T03:55:40;21.70;99.90
21403;DHT22;10862;51.886;17.078;2023-11-22T03:58:06;21.70;99.90
21403;DHT22;10862;51.886;17.078;2023-11-22T04:00:33;21.70;99.90
21403;DHT22;10862;51.886;17.078;2023-11-22T04:02:59;21.70;99.90
21403;DHT22;10862;51.886;17.078;2023-11-22T04:05:27;21.70;99.90
21403;DHT22;10862;51.886;17.078;2023-11-22T04:07:52;21.70;99.90
21403;DHT22;10862;51.886;17.078;2023-11-22T04:10:18;21.70;99.90
21403;DHT22;10862;51.886;17.078;2023-11-22T04:12:45;21.70;99.90
21403;DHT22;10862;51.886;17.078;2023-11-22T04:15:11;21.70;99.90
21403;DHT22;10862;51.886;17.078;2023-11-22T04:17:37;21.70;99.90
21403;DHT22;10862;51.886;17.078;2023-11-22T04:20:05;21.70;99.90
21403;DHT22;10862;51.886;17.078;2023-11-22T04:22:34;21.70;99.90
21403;DHT22;10862;51.886;17.078;2023-11-22T04:25:00;21.70;99.90
21403;DHT22;10862;51.886;17.078;2023-11-22T04:27:27;21.70;99.90
21403;DHT22;10862;51.886;17.078;2023-11-22T04:29:53;21.60;99.90
21403;DHT22;10862;51.886;17.078;2023-11-22T04:32:19;21.70;99.90
21403;DHT22;10862;51.886;17.078;2023-11-22T04:34:47;21.60;99.90
21403;DHT22;10862;51.886;17.078;2023-11-22T04:37:13;21.60;99.90
21403;DHT22;10862;51.886;17.078;2023-11-22T04:39:38;21.60;99.90
21403;DHT22;10862;51.886;17.078;2023-11-22T04:42:04;21.60;99.90
21403;DHT22;10862;51.886;17.078;2023-11-22T04:44:31;21.50;99.90
21403;DHT22;10862;51.886;17.078;2023-11-22T04:46:57;21.50;99.90
21403;DHT22;10862;51.886;17.078;2023-11-22T04:49:25;21.50;99.90
21403;DHT22;10862;51.886;17.078;2023-11-22T04:51:50;21.50;99.90
21403;DHT22;10862;51.886;17.078;2023-11-22T04:54:16;21.50;99.90
21403;DHT22;10862;51.886;17.078;2023-11-22T04:56:42;21.50;99.90
21403;DHT22;10862;51.886;17.078;2023-11-22T04:59:08;21.40;99.90
21403;DHT22;10862;51.886;17.078;2023-11-22T05:01:34;21.40;99.90
21403;DHT22;10862;51.886;17.078;2023-11-22T05:04:00;21.40;99.90
21403;DHT22;10862;51.886;17.078;2023-11-22T05:06:26;21.40;99.90
21403;DHT22;10862;51.886;17.078;2023-11-22T05:08:52;21.40;99.90
21403;DHT22;10862;51.886;17.078;2023-11-22T05:11:19;21.40;99.90
21403;DHT22;10862;51.886;17.078;2023-11-22T05:13:44;21.40;99.90
21403;DHT22;10862;51.886;17.078;2023-11-22T05:16:10;21.40;99.90
21403;DHT22;10862;51.886;17.078;2023-11-22T05:18:36;21.40;99.90
21403;DHT22;10862;51.886;17.078;2023-11-22T05:21:04;21.40;99.90
21403;DHT22;10862;51.886;17.078;2023-11-22T05:23:30;21.40;99.90
21403;DHT22;10862;51.886;17.078;2023-11-22T05:25:58;21.40;99.90
21403;DHT22;10862;51.886;17.078;2023-11-22T05:28:25;21.40;99.90
21403;DHT22;10862;51.886;17.078;2023-11-22T05:30:50;21.40;99.90
21403;DHT22;10862;51.886;17.078;2023-11-22T05:33:16;21.40;99.90
21403;DHT22;10862;51.886;17.078;2023-11-22T05:35:42;21.40;99.90
21403;DHT22;10862;51.886;17.078;2023-11-22T05:38:08;21.40;99.90
21403;DHT22;10862;51.886;17.078;2023-11-22T05:40:34;21.40;99.90
21403;DHT22;10862;51.886;17.078;2023-11-22T05:42:59;21.40;99.90
21403;DHT22;10862;51.886;17.078;2023-11-22T05:45:25;21.40;99.90
21403;DHT22;10862;51.886;17.078;2023-11-22T05:47:51;21.40;99.90
21403;DHT22;10862;51.886;17.078;2023-11-22T05:50:17;21.40;99.90
21403;DHT22;10862;51.886;17.078;2023-11-22T05:52:43;21.40;99.90
21403;DHT22;10862;51.886;17.078;2023-11-22T05:55:10;21.40;99.90
21403;DHT22;10862;51.886;17.078;2023-11-22T05:57:42;21.30;99.90
21403;DHT22;10862;51.886;17.078;2023-11-22T06:00:08;21.30;99.90
21403;DHT22;10862;51.886;17.078;2023-11-22T06:02:34;21.30;99.90
21403;DHT22;10862;51.886;17.078;2023-11-22T06:05:00;21.30;99.90
21403;DHT22;10862;51.886;17.078;2023-11-22T06:07:26;21.30;99.90
21403;DHT22;10862;51.886;17.078;2023-11-22T06:09:52;21.30;99.90
21403;DHT22;10862;51.886;17.078;2023-11-22T06:12:18;21.30;99.90
21403;DHT22;10862;51.886;17.078;2023-11-22T06:14:46;21.30;99.90
21403;DHT22;10862;51.886;17.078;2023-11-22T06:17:12;21.30;99.90
21403;DHT22;10862;51.886;17.078;2023-11-22T06:19:37;21.30;99.90
21403;DHT22;10862;51.886;17.078;2023-11-22T06:22:04;21.30;99.90
21403;DHT22;10862;51.886;17.078;2023-11-22T06:24:29;21.30;99.90
21403;DHT22;10862;51.886;17.078;2023-11-22T06:26:56;21.30;99.90
21403;DHT22;10862;51.886;17.078;2023-11-22T06:29:22;21.30;99.90
21403;DHT22;10862;51.886;17.078;2023-11-22T06:31:47;21.20;99.90
21403;DHT22;10862;51.886;17.078;2023-11-22T06:34:13;21.20;99.90
21403;DHT22;10862;51.886;17.078;2023-11-22T06:36:38;21.20;99.90
21403;DHT22;10862;51.886;17.078;2023-11-22T06:39:04;21.20;99.90
21403;DHT22;10862;51.886;17.078;2023-11-22T06:41:31;21.20;99.90
21403;DHT22;10862;51.886;17.078;2023-11-22T06:43:56;21.20;99.90
21403;DHT22;10862;51.886;17.078;2023-11-22T06:46:23;21.20;99.90
21403;DHT22;10862;51.886;17.078;2023-11-22T06:48:49;21.20;99.90
21403;DHT22;10862;51.886;17.078;2023-11-22T06:51:15;21.20;99.90
21403;DHT22;10862;51.886;17.078;2023-11-22T06:53:41;21.20;99.90
21403;DHT22;10862;51.886;17.078;2023-11-22T06:56:06;21.20;99.90
21403;DHT22;10862;51.886;17.078;2023-11-22T06:58:32;21.10;99.90
21403;DHT22;10862;51.886;17.078;2023-11-22T07:00:58;21.10;99.90
21403;DHT22;10862;51.886;17.078;2023-11-22T07:03:23;21.10;99.90
21403;DHT22;10862;51.886;17.078;2023-11-22T07:05:49;21.10;99.90
21403;DHT22;10862;51.886;17.078;2023-11-22T07:08:14;21.10;99.90
21403;DHT22;10862;51.886;17.078;2023-11-22T07:10:43;21.10;99.90
21403;DHT22;10862;51.886;17.078;2023-11-22T07:13:10;21.10;99.90
21403;DHT22;10862;51.886;17.078;2023-11-22T07:15:36;21.10;99.90
21403;DHT22;10862;51.886;17.078;2023-11-22T07:18:02;21.10;99.90
21403;DHT22;10862;51.886;17.078;2023-11-22T07:20:27;21.10;99.90
21403;DHT22;10862;51.886;17.078;2023-11-22T07:22:53;21.10;99.90
21403;DHT22;10862;51.886;17.078;2023-11-22T07:25:23;21.10;99.90
21403;DHT22;10862;51.886;17.078;2023-11-22T07:27:50;21.10;99.90
21403;DHT22;10862;51.886;17.078;2023-11-22T07:30:16;21.10;99.90
21403;DHT22;10862;51.886;17.078;2023-11-22T07:32:44;21.10;99.90
21403;DHT22;10862;51.886;17.078;2023-11-22T07:35:10;21.10;99.90
21403;DHT22;10862;51.886;17.078;2023-11-22T07:37:37;21.10;99.90
21403;DHT22;10862;51.886;17.078;2023-11-22T07:40:08;21.10;99.90
21403;DHT22;10862;51.886;17.078;2023-11-22T07:42:35;21.10;99.90
21403;DHT22;10862;51.886;17.078;2023-11-22T07:45:01;21.10;99.90
21403;DHT22;10862;51.886;17.078;2023-11-22T07:47:27;21.00;99.90
21403;DHT22;10862;51.886;17.078;2023-11-22T07:49:54;21.10;99.90
21403;DHT22;10862;51.886;17.078;2023-11-22T07:52:24;21.00;99.90
21403;DHT22;10862;51.886;17.078;2023-11-22T07:54:58;21.00;99.90
21403;DHT22;10862;51.886;17.078;2023-11-22T07:57:25;21.00;99.90
21403;DHT22;10862;51.886;17.078;2023-11-22T07:59:51;21.00;99.90
21403;DHT22;10862;51.886;17.078;2023-11-22T08:02:20;21.00;99.90
21403;DHT22;10862;51.886;17.078;2023-11-22T08:04:46;21.00;99.90
21403;DHT22;10862;51.886;17.078;2023-11-22T08:07:13;21.00;99.90
21403;DHT22;10862;51.886;17.078;2023-11-22T08:09:43;21.00;99.90
21403;DHT22;10862;51.886;17.078;2023-11-22T08:12:09;21.00;99.90
21403;DHT22;10862;51.886;17.078;2023-11-22T08:14:37;21.00;99.90
21403;DHT22;10862;51.886;17.078;2023-11-22T08:17:02;21.00;99.90
21403;DHT22;10862;51.886;17.078;2023-11-22T08:19:29;21.00;99.90
21403;DHT22;10862;51.886;17.078;2023-11-22T08:21:55;21.00;99.90
21403;DHT22;10862;51.886;17.078;2023-11-22T08:24:20;21.00;99.90
21403;DHT22;10862;51.886;17.078;2023-11-22T08:26:46;21.00;99.90
21403;DHT22;10862;51.886;17.078;2023-11-22T08:29:12;21.00;99.90
21403;DHT22;10862;51.886;17.078;2023-11-22T08:31:38;21.00;99.90
21403;DHT22;10862;51.886;17.078;2023-11-22T08:34:03;21.00;99.90
21403;DHT22;10862;51.886;17.078;2023-11-22T08:36:33;21.00;99.90
21403;DHT22;10862;51.886;17.078;2023-11-22T08:39:02;21.00;99.90
21403;DHT22;10862;51.886;17.078;2023-11-22T08:41:30;21.00;99.90
21403;DHT22;10862;51.886;17.078;2023-11-22T08:43:57;21.00;99.90
21403;DHT22;10862;51.886;17.078;2023-11-22T08:46:22;21.00;99.90
21403;DHT22;10862;51.886;17.078;2023-11-22T08:48:49;21.00;99.90
21403;DHT22;10862;51.886;17.078;2023-11-22T08:51:16;21.00;99.90
21403;DHT22;10862;51.886;17.078;2023-11-22T08:53:43;20.90;99.90
21403;DHT22;10862;51.886;17.078;2023-11-22T08:56:10;21.00;99.90
21403;DHT22;10862;51.886;17.078;2023-11-22T08:58:39;21.00;99.90
21403;DHT22;10862;51.886;17.078;2023-11-22T09:01:06;21.00;99.90
21403;DHT22;10862;51.886;17.078;2023-11-22T09:03:33;21.00;99.90
21403;DHT22;10862;51.886;17.078;2023-11-22T09:05:58;21.00;99.90
21403;DHT22;10862;51.886;17.078;2023-11-22T09:08:25;21.00;99.90
21403;DHT22;10862;51.886;17.078;2023-11-22T09:10:51;21.00;99.90
21403;DHT22;10862;51.886;17.078;2023-11-22T09:13:17;21.00;99.90
21403;DHT22;10862;51.886;17.078;2023-11-22T09:15:43;21.00;99.90
21403;DHT22;10862;51.886;17.078;2023-11-22T09:18:10;21.00;99.90
21403;DHT22;10862;51.886;17.078;2023-11-22T09:20:38;21.00;99.90
21403;DHT22;10862;51.886;17.078;2023-11-22T09:23:03;21.00;99.90
21403;DHT22;10862;51.886;17.078;2023-11-22T09:25:30;21.00;99.90
21403;DHT22;10862;51.886;17.078;2023-11-22T09:27:57;21.00;99.90
21403;DHT22;10862;51.886;17.078;2023-11-22T09:30:30;21.00;99.90
21403;DHT22;10862;51.886;17.078;2023-11-22T09:33:09;21.00;99.90
21403;DHT22;10862;51.886;17.078;2023-11-22T09:35:37;21.00;99.90
21403;DHT22;10862;51.886;17.078;2023-11-22T09:38:07;21.00;99.90
21403;DHT22;10862;51.886;17.078;2023-11-22T09:40:42;21.00;99.90
21403;DHT22;10862;51.886;17.078;2023-11-22T09:43:09;21.00;99.90
21403;DHT22;10862;51.886;17.078;2023-11-22T09:45:34;21.00;99.90
21403;DHT22;10862;51.886;17.078;2023-11-22T09:48:02;21.00;99.90
21403;DHT22;10862;51.886;17.078;2023-11-22T09:53:46;21.00;99.90
21403;DHT22;10862;51.886;17.078;2023-11-22T09:56:13;21.00;99.30
21403;DHT22;10862;51.886;17.078;2023-11-22T09:58:42;21.00;97.80
21403;DHT22;10862;51.886;17.078;2023-11-22T10:01:11;21.00;97.70
21403;DHT22;10862;51.886;17.078;2023-11-22T10:03:39;21.00;95.70
21403;DHT22;10862;51.886;17.078;2023-11-22T10:06:05;21.10;95.80
21403;DHT22;10862;51.886;17.078;2023-11-22T10:08:31;21.10;95.50
21403;DHT22;10862;51.886;17.078;2023-11-22T10:10:58;21.10;95.30
21403;DHT22;10862;51.886;17.078;2023-11-22T10:13:25;21.10;95.10
21403;DHT22;10862;51.886;17.078;2023-11-22T10:15:51;21.10;94.30
21403;DHT22;10862;51.886;17.078;2023-11-22T10:18:18;21.10;93.50
21403;DHT22;10862;51.886;17.078;2023-11-22T10:20:47;21.10;94.70
21403;DHT22;10862;51.886;17.078;2023-11-22T10:23:14;21.10;92.30
21403;DHT22;10862;51.886;17.078;2023-11-22T10:25:51;21.10;93.30
21403;DHT22;10862;51.886;17.078;2023-11-22T10:28:22;21.10;92.80
21403;DHT22;10862;51.886;17.078;2023-11-22T10:30:50;21.20;92.00
21403;DHT22;10862;51.886;17.078;2023-11-22T10:33:17;21.20;90.30
21403;DHT22;10862;51.886;17.078;2023-11-22T10:35:47;21.20;99.90
21403;DHT22;10862;51.886;17.078;2023-11-22T10:38:17;21.20;89.90
21403;DHT22;10862;51.886;17.078;2023-11-22T10:40:43;21.20;90.40
21403;DHT22;10862;51.886;17.078;2023-11-22T10:43:11;21.20;88.20
21403;DHT22;10862;51.886;17.078;2023-11-22T10:45:38;21.20;88.90
21403;DHT22;10862;51.886;17.078;2023-11-22T10:48:05;21.20;87.20
21403;DHT22;10862;51.886;17.078;2023-11-22T10:50:31;21.20;84.30
21403;DHT22;10862;51.886;17.078;2023-11-22T10:52:58;21.30;82.90
21403;DHT22;10862;51.886;17.078;2023-11-22T10:55:32;21.30;83.70
21403;DHT22;10862;51.886;17.078;2023-11-22T10:58:02;21.30;82.60
21403;DHT22;10862;51.886;17.078;2023-11-22T11:00:31;21.30;79.40
21403;DHT22;10862;51.886;17.078;2023-11-22T11:03:06;21.30;78.70
21403;DHT22;10862;51.886;17.078;2023-11-22T11:05:38;21.30;80.10
21403;DHT22;10862;51.886;17.078;2023-11-22T11:08:11;21.30;78.60
21403;DHT22;10862;51.886;17.078;2023-11-22T11:10:40;21.30;80.10
21403;DHT22;10862;51.886;17.078;2023-11-22T11:13:09;21.40;79.90
21403;DHT22;10862;51.886;17.078;2023-11-22T11:15:36;21.40;74.50
21403;DHT22;10862;51.886;17.078;2023-11-22T11:18:02;21.40;78.30
21403;DHT22;10862;51.886;17.078;2023-11-22T11:20:33;21.40;76.00
21403;DHT22;10862;51.886;17.078;2023-11-22T11:23:13;21.40;74.40
21403;DHT22;10862;51.886;17.078;2023-11-22T11:25:41;21.40;72.00
21403;DHT22;10862;51.886;17.078;2023-11-22T11:28:10;21.50;68.40
21403;DHT22;10862;51.886;17.078;2023-11-22T11:30:43;21.50;71.50
21403;DHT22;10862;51.886;17.078;2023-11-22T11:33:12;21.50;65.60
21403;DHT22;10862;51.886;17.078;2023-11-22T11:35:49;21.50;87.80
21403;DHT22;10862;51.886;17.078;2023-11-22T11:38:21;21.50;88.10
21403;DHT22;10862;51.886;17.078;2023-11-22T11:40:52;21.50;64.60
21403;DHT22;10862;51.886;17.078;2023-11-22T11:43:45;21.60;84.00
21403;DHT22;10862;51.886;17.078;2023-11-22T11:46:12;21.50;63.50
21403;DHT22;10862;51.886;17.078;2023-11-22T11:48:38;21.50;59.00
21403;DHT22;10862;51.886;17.078;2023-11-22T11:51:07;21.60;58.20
21403;DHT22;10862;51.886;17.078;2023-11-22T11:53:32;21.60;59.50
21403;DHT22;10862;51.886;17.078;2023-11-22T11:55:58;21.60;58.20
21403;DHT22;10862;51.886;17.078;2023-11-22T11:58:24;21.60;54.90
21403;DHT22;10862;51.886;17.078;2023-11-22T12:00:54;21.60;54.20
21403;DHT22;10862;51.886;17.078;2023-11-22T12:03:20;21.60;53.90
21403;DHT22;10862;51.886;17.078;2023-11-22T12:05:47;21.70;49.90
21403;DHT22;10862;51.886;17.078;2023-11-22T12:08:14;21.70;47.50
21403;DHT22;10862;51.886;17.078;2023-11-22T12:10:43;21.70;45.60
21403;DHT22;10862;51.886;17.078;2023-11-22T12:13:09;21.70;46.70
21403;DHT22;10862;51.886;17.078;2023-11-22T12:15:35;21.70;45.80
21403;DHT22;10862;51.886;17.078;2023-11-22T12:18:01;21.70;44.20
21403;DHT22;10862;51.886;17.078;2023-11-22T12:20:27;21.70;42.40
21403;DHT22;10862;51.886;17.078;2023-11-22T12:22:57;21.70;39.40
21403;DHT22;10862;51.886;17.078;2023-11-22T12:25:26;21.70;39.20
21403;DHT22;10862;51.886;17.078;2023-11-22T12:27:54;21.70;37.60
21403;DHT22;10862;51.886;17.078;2023-11-22T12:30:34;21.70;36.60
21403;DHT22;10862;51.886;17.078;2023-11-22T12:33:06;21.70;37.30
21403;DHT22;10862;51.886;17.078;2023-11-22T12:35:35;21.70;35.70
21403;DHT22;10862;51.886;17.078;2023-11-22T12:38:03;21.70;31.40
21403;DHT22;10862;51.886;17.078;2023-11-22T12:40:31;21.80;31.20
21403;DHT22;10862;51.886;17.078;2023-11-22T12:42:57;21.80;30.70
21403;DHT22;10862;51.886;17.078;2023-11-22T12:45:25;21.80;28.70
21403;DHT22;10862;51.886;17.078;2023-11-22T12:47:51;21.80;28.00
21403;DHT22;10862;51.886;17.078;2023-11-22T12:50:36;21.80;28.30
21403;DHT22;10862;51.886;17.078;2023-11-22T12:53:13;21.80;27.40
21403;DHT22;10862;51.886;17.078;2023-11-22T12:55:46;21.80;26.20
21403;DHT22;10862;51.886;17.078;2023-11-22T12:58:15;21.80;23.00
21403;DHT22;10862;51.886;17.078;2023-11-22T13:00:41;21.80;23.10
21403;DHT22;10862;51.886;17.078;2023-11-22T13:03:07;21.80;21.40
21403;DHT22;10862;51.886;17.078;2023-11-22T13:05:36;21.80;22.90
21403;DHT22;10862;51.886;17.078;2023-11-22T13:08:01;21.80;21.60
21403;DHT22;10862;51.886;17.078;2023-11-22T13:10:29;21.80;21.30
21403;DHT22;10862;51.886;17.078;2023-11-22T13:12:56;21.70;21.10
21403;DHT22;10862;51.886;17.078;2023-11-22T13:15:22;21.80;21.70
21403;DHT22;10862;51.886;17.078;2023-11-22T13:17:49;21.70;18.60
21403;DHT22;10862;51.886;17.078;2023-11-22T13:20:16;21.70;18.80
21403;DHT22;10862;51.886;17.078;2023-11-22T13:22:41;21.70;17.30
21403;DHT22;10862;51.886;17.078;2023-11-22T13:25:10;21.70;18.10
21403;DHT22;10862;51.886;17.078;2023-11-22T13:27:39;21.70;18.20
21403;DHT22;10862;51.886;17.078;2023-11-22T13:30:07;21.70;16.10
21403;DHT22;10862;51.886;17.078;2023-11-22T13:32:33;21.60;16.80
21403;DHT22;10862;51.886;17.078;2023-11-22T13:34:58;21.60;15.40
21403;DHT22;10862;51.886;17.078;2023-11-22T13:37:24;21.60;15.90
21403;DHT22;10862;51.886;17.078;2023-11-22T13:39:50;21.60;14.70
21403;DHT22;10862;51.886;17.078;2023-11-22T13:42:16;21.50;14.00
21403;DHT22;10862;51.886;17.078;2023-11-22T13:44:42;21.50;13.80
21403;DHT22;10862;51.886;17.078;2023-11-22T13:47:09;21.50;15.40
21403;DHT22;10862;51.886;17.078;2023-11-22T13:49:35;21.50;14.30
21403;DHT22;10862;51.886;17.078;2023-11-22T13:52:01;21.50;27.60
21403;DHT22;10862;51.886;17.078;2023-11-22T13:54:27;21.40;13.50
21403;DHT22;10862;51.886;17.078;2023-11-22T13:56:52;21.40;12.50
21403;DHT22;10862;51.886;17.078;2023-11-22T13:59:18;21.40;12.40
21403;DHT22;10862;51.886;17.078;2023-11-22T14:01:45;21.30;12.10
21403;DHT22;10862;51.886;17.078;2023-11-22T14:04:11;21.30;12.00
21403;DHT22;10862;51.886;17.078;2023-11-22T14:06:36;21.30;13.60
21403;DHT22;10862;51.886;17.078;2023-11-22T14:09:02;21.30;11.20
21403;DHT22;10862;51.886;17.078;2023-11-22T14:11:28;21.30;12.60
21403;DHT22;10862;51.886;17.078;2023-11-22T14:13:55;21.20;10.20
21403;DHT22;10862;51.886;17.078;2023-11-22T14:16:20;21.20;8.70
21403;DHT22;10862;51.886;17.078;2023-11-22T14:18:46;21.20;10.90
21403;DHT22;10862;51.886;17.078;2023-11-22T14:21:11;21.20;14.60
21403;DHT22;10862;51.886;17.078;2023-11-22T14:23:37;21.20;15.90
21403;DHT22;10862;51.886;17.078;2023-11-22T14:26:03;21.20;18.10
21403;DHT22;10862;51.886;17.078;2023-11-22T14:28:28;21.10;25.50
21403;DHT22;10862;51.886;17.078;2023-11-22T14:30:55;21.10;17.90
21403;DHT22;10862;51.886;17.078;2023-11-22T14:33:21;21.10;21.30
21403;DHT22;10862;51.886;17.078;2023-11-22T14:35:46;21.10;20.80
21403;DHT22;10862;51.886;17.078;2023-11-22T14:38:12;21.10;22.10
21403;DHT22;10862;51.886;17.078;2023-11-22T14:40:39;21.10;23.00
21403;DHT22;10862;51.886;17.078;2023-11-22T14:43:06;21.10;36.70
21403;DHT22;10862;51.886;17.078;2023-11-22T14:45:32;21.00;21.40
21403;DHT22;10862;51.886;17.078;2023-11-22T14:47:58;21.00;23.60
21403;DHT22;10862;51.886;17.078;2023-11-22T14:50:24;21.00;22.50
21403;DHT22;10862;51.886;17.078;2023-11-22T14:52:53;21.00;24.60
21403;DHT22;10862;51.886;17.078;2023-11-22T14:55:20;21.00;22.60
21403;DHT22;10862;51.886;17.078;2023-11-22T14:57:46;21.00;24.00
21403;DHT22;10862;51.886;17.078;2023-11-22T15:00:13;20.90;39.60
21403;DHT22;10862;51.886;17.078;2023-11-22T15:02:42;20.90;23.40
21403;DHT22;10862;51.886;17.078;2023-11-22T15:05:09;20.90;42.20
21403;DHT22;10862;51.886;17.078;2023-11-22T15:07:37;20.90;25.00
21403;DHT22;10862;51.886;17.078;2023-11-22T15:10:07;20.90;25.70
21403;DHT22;10862;51.886;17.078;2023-11-22T15:12:33;20.90;24.50
21403;DHT22;10862;51.886;17.078;2023-11-22T15:15:00;20.90;25.00
21403;DHT22;10862;51.886;17.078;2023-11-22T15:17:25;20.80;25.40